sensor_id;sensor_type;location;lat;lon;timestamp;P1;durP1;ratioP1;P2;durP2;ratioP2
60239;SDS011;46102;39.012;-7.064;2022-08-21T00:01:29;6.72;;;3.10;;
60239;SDS011;46102;39.012;-7.064;2022-08-21T00:03:31;2.92;;;2.60;;
60239;SDS011;46102;39.012;-7.064;2022-08-21T00:05:35;7.88;;;3.72;;
60239;SDS011;46102;39.012;-7.064;2022-08-21T00:07:38;4.95;;;3.42;;
60239;SDS011;46102;39.012;-7.064;2022-08-21T00:09:38;7.80;;;3.42;;
60239;SDS011;46102;39.012;-7.064;2022-08-21T00:11:39;2.80;;;2.58;;
60239;SDS011;46102;39.012;-7.064;2022-08-21T00:13:41;4.95;;;3.05;;
60239;SDS011;46102;39.012;-7.064;2022-08-21T00:15:41;7.40;;;3.20;;
60239;SDS011;46102;39.012;-7.064;2022-08-21T00:17:42;3.47;;;3.17;;
60239;SDS011;46102;39.012;-7.064;2022-08-21T00:19:43;2.95;;;2.75;;
60239;SDS011;46102;39.012;-7.064;2022-08-21T00:21:44;6.85;;;2.80;;
60239;SDS011;46102;39.012;-7.064;2022-08-21T00:23:45;5.82;;;2.70;;
60239;SDS011;46102;39.012;-7.064;2022-08-21T00:25:46;4.45;;;2.78;;
60239;SDS011;46102;39.012;-7.064;2022-08-21T00:27:47;10.05;;;3.17;;
60239;SDS011;46102;39.012;-7.064;2022-08-21T00:29:48;5.55;;;2.90;;
60239;SDS011;46102;39.012;-7.064;2022-08-21T00:31:49;3.55;;;3.25;;
60239;SDS011;46102;39.012;-7.064;2022-08-21T00:33:50;5.68;;;3.17;;
60239;SDS011;46102;39.012;-7.064;2022-08-21T00:35:50;5.63;;;2.67;;
60239;SDS011;46102;39.012;-7.064;2022-08-21T00:37:51;3.17;;;2.30;;
60239;SDS011;46102;39.012;-7.064;2022-08-21T00:39:52;7.20;;;2.58;;
60239;SDS011;46102;39.012;-7.064;2022-08-21T00:41:53;5.20;;;3.22;;
60239;SDS011;46102;39.012;-7.064;2022-08-21T00:43:54;4.65;;;2.80;;
60239;SDS011;46102;39.012;-7.064;2022-08-21T00:45:55;4.22;;;3.00;;
60239;SDS011;46102;39.012;-7.064;2022-08-21T00:47:57;4.85;;;2.97;;
60239;SDS011;46102;39.012;-7.064;2022-08-21T00:49:58;5.22;;;2.88;;
60239;SDS011;46102;39.012;-7.064;2022-08-21T00:51:59;2.90;;;2.65;;
60239;SDS011;46102;39.012;-7.064;2022-08-21T00:54:02;6.05;;;2.88;;
60239;SDS011;46102;39.012;-7.064;2022-08-21T00:56:07;3.35;;;2.72;;
60239;SDS011;46102;39.012;-7.064;2022-08-21T00:58:10;6.40;;;2.50;;
60239;SDS011;46102;39.012;-7.064;2022-08-21T01:00:14;4.32;;;2.72;;
60239;SDS011;46102;39.012;-7.064;2022-08-21T01:02:19;5.82;;;2.45;;
60239;SDS011;46102;39.012;-7.064;2022-08-21T01:04:20;4.18;;;2.67;;
60239;SDS011;46102;39.012;-7.064;2022-08-21T01:06:22;2.75;;;2.53;;
60239;SDS011;46102;39.012;-7.064;2022-08-21T01:08:24;3.58;;;2.47;;
60239;SDS011;46102;39.012;-7.064;2022-08-21T01:10:25;3.35;;;2.35;;
60239;SDS011;46102;39.012;-7.064;2022-08-21T01:12:26;6.03;;;2.63;;
60239;SDS011;46102;39.012;-7.064;2022-08-21T01:14:27;5.53;;;2.92;;
60239;SDS011;46102;39.012;-7.064;2022-08-21T01:16:28;2.95;;;2.67;;
60239;SDS011;46102;39.012;-7.064;2022-08-21T01:18:29;4.65;;;3.05;;
60239;SDS011;46102;39.012;-7.064;2022-08-21T01:20:30;4.97;;;2.58;;
60239;SDS011;46102;39.012;-7.064;2022-08-21T01:22:32;3.83;;;2.80;;
60239;SDS011;46102;39.012;-7.064;2022-08-21T01:24:33;5.55;;;2.58;;
60239;SDS011;46102;39.012;-7.064;2022-08-21T01:26:34;3.15;;;2.85;;
60239;SDS011;46102;39.012;-7.064;2022-08-21T01:28:38;4.38;;;2.80;;
60239;SDS011;46102;39.012;-7.064;2022-08-21T01:30:43;5.38;;;3.00;;
60239;SDS011;46102;39.012;-7.064;2022-08-21T01:32:44;4.05;;;2.78;;
60239;SDS011;46102;39.012;-7.064;2022-08-21T01:34:47;5.93;;;3.22;;
60239;SDS011;46102;39.012;-7.064;2022-08-21T01:36:49;8.73;;;3.33;;
60239;SDS011;46102;39.012;-7.064;2022-08-21T01:38:50;5.15;;;2.95;;
60239;SDS011;46102;39.012;-7.064;2022-08-21T01:40:51;8.70;;;3.42;;
60239;SDS011;46102;39.012;-7.064;2022-08-21T01:42:51;9.40;;;3.13;;
60239;SDS011;46102;39.012;-7.064;2022-08-21T01:44:53;4.95;;;3.45;;
60239;SDS011;46102;39.012;-7.064;2022-08-21T01:46:54;8.00;;;2.92;;
60239;SDS011;46102;39.012;-7.064;2022-08-21T01:48:55;4.18;;;2.97;;
60239;SDS011;46102;39.012;-7.064;2022-08-21T01:50:56;6.22;;;3.38;;
60239;SDS011;46102;39.012;-7.064;2022-08-21T01:52:57;5.90;;;2.47;;
60239;SDS011;46102;39.012;-7.064;2022-08-21T01:54:58;13.93;;;3.78;;
60239;SDS011;46102;39.012;-7.064;2022-08-21T01:56:59;7.10;;;3.58;;
60239;SDS011;46102;39.012;-7.064;2022-08-21T01:59:00;3.50;;;3.00;;
60239;SDS011;46102;39.012;-7.064;2022-08-21T02:01:02;16.55;;;3.90;;
60239;SDS011;46102;39.012;-7.064;2022-08-21T02:03:04;6.60;;;3.97;;
60239;SDS011;46102;39.012;-7.064;2022-08-21T02:05:05;4.20;;;3.00;;
60239;SDS011;46102;39.012;-7.064;2022-08-21T02:07:08;8.07;;;3.30;;
60239;SDS011;46102;39.012;-7.064;2022-08-21T02:09:10;4.82;;;3.53;;
60239;SDS011;46102;39.012;-7.064;2022-08-21T02:11:12;3.13;;;2.83;;
60239;SDS011;46102;39.012;-7.064;2022-08-21T02:13:13;5.28;;;3.17;;
60239;SDS011;46102;39.012;-7.064;2022-08-21T02:15:14;5.60;;;3.47;;
60239;SDS011;46102;39.012;-7.064;2022-08-21T02:17:14;8.30;;;3.60;;
60239;SDS011;46102;39.012;-7.064;2022-08-21T02:19:15;5.78;;;3.45;;
60239;SDS011;46102;39.012;-7.064;2022-08-21T02:21:16;3.63;;;3.28;;
60239;SDS011;46102;39.012;-7.064;2022-08-21T02:23:17;9.43;;;3.33;;
60239;SDS011;46102;39.012;-7.064;2022-08-21T02:25:18;9.23;;;3.63;;
60239;SDS011;46102;39.012;-7.064;2022-08-21T02:27:20;6.47;;;3.58;;
60239;SDS011;46102;39.012;-7.064;2022-08-21T02:29:24;7.35;;;3.00;;
60239;SDS011;46102;39.012;-7.064;2022-08-21T02:31:25;5.97;;;3.60;;
60239;SDS011;46102;39.012;-7.064;2022-08-21T02:33:26;5.35;;;3.58;;
60239;SDS011;46102;39.012;-7.064;2022-08-21T02:35:27;12.45;;;3.80;;
60239;SDS011;46102;39.012;-7.064;2022-08-21T02:37:28;7.13;;;3.58;;
60239;SDS011;46102;39.012;-7.064;2022-08-21T02:39:29;7.10;;;4.10;;
60239;SDS011;46102;39.012;-7.064;2022-08-21T02:41:29;10.75;;;3.65;;
60239;SDS011;46102;39.012;-7.064;2022-08-21T02:43:31;5.88;;;3.25;;
60239;SDS011;46102;39.012;-7.064;2022-08-21T02:45:33;9.23;;;4.53;;
60239;SDS011;46102;39.012;-7.064;2022-08-21T02:47:34;6.65;;;3.85;;
60239;SDS011;46102;39.012;-7.064;2022-08-21T02:49:35;8.02;;;3.67;;
60239;SDS011;46102;39.012;-7.064;2022-08-21T02:51:36;6.68;;;3.75;;
60239;SDS011;46102;39.012;-7.064;2022-08-21T02:53:37;7.95;;;4.55;;
60239;SDS011;46102;39.012;-7.064;2022-08-21T02:55:38;7.03;;;3.95;;
60239;SDS011;46102;39.012;-7.064;2022-08-21T02:57:39;4.68;;;3.63;;
60239;SDS011;46102;39.012;-7.064;2022-08-21T02:59:40;7.70;;;3.30;;
60239;SDS011;46102;39.012;-7.064;2022-08-21T03:01:40;5.45;;;3.35;;
60239;SDS011;46102;39.012;-7.064;2022-08-21T03:03:42;7.53;;;3.67;;
60239;SDS011;46102;39.012;-7.064;2022-08-21T03:05:44;5.40;;;3.47;;
60239;SDS011;46102;39.012;-7.064;2022-08-21T03:07:46;4.38;;;3.13;;
60239;SDS011;46102;39.012;-7.064;2022-08-21T03:09:47;5.50;;;2.95;;
60239;SDS011;46102;39.012;-7.064;2022-08-21T03:11:48;12.45;;;4.25;;
60239;SDS011;46102;39.012;-7.064;2022-08-21T03:13:49;5.32;;;3.67;;
60239;SDS011;46102;39.012;-7.064;2022-08-21T03:15:49;5.78;;;3.63;;
60239;SDS011;46102;39.012;-7.064;2022-08-21T03:17:50;9.95;;;4.07;;
60239;SDS011;46102;39.012;-7.064;2022-08-21T03:19:53;5.38;;;3.20;;
60239;SDS011;46102;39.012;-7.064;2022-08-21T03:21:53;6.68;;;4.03;;
60239;SDS011;46102;39.012;-7.064;2022-08-21T03:23:54;9.57;;;3.70;;
60239;SDS011;46102;39.012;-7.064;2022-08-21T03:25:55;7.75;;;4.05;;
60239;SDS011;46102;39.012;-7.064;2022-08-21T03:27:56;4.55;;;3.00;;
60239;SDS011;46102;39.012;-7.064;2022-08-21T03:29:57;5.80;;;3.50;;
60239;SDS011;46102;39.012;-7.064;2022-08-21T03:31:58;5.38;;;3.53;;
60239;SDS011;46102;39.012;-7.064;2022-08-21T03:33:59;7.20;;;3.33;;
60239;SDS011;46102;39.012;-7.064;2022-08-21T03:36:01;8.15;;;3.60;;
60239;SDS011;46102;39.012;-7.064;2022-08-21T03:38:04;9.38;;;3.72;;
60239;SDS011;46102;39.012;-7.064;2022-08-21T03:40:06;5.82;;;4.32;;
60239;SDS011;46102;39.012;-7.064;2022-08-21T03:42:08;7.55;;;3.50;;
60239;SDS011;46102;39.012;-7.064;2022-08-21T03:44:09;8.07;;;3.20;;
60239;SDS011;46102;39.012;-7.064;2022-08-21T03:46:10;4.68;;;2.78;;
60239;SDS011;46102;39.012;-7.064;2022-08-21T03:48:11;5.65;;;3.28;;
60239;SDS011;46102;39.012;-7.064;2022-08-21T03:50:11;7.15;;;3.05;;
60239;SDS011;46102;39.012;-7.064;2022-08-21T03:52:12;4.72;;;3.17;;
60239;SDS011;46102;39.012;-7.064;2022-08-21T03:54:13;6.85;;;3.15;;
60239;SDS011;46102;39.012;-7.064;2022-08-21T03:56:14;7.82;;;2.97;;
60239;SDS011;46102;39.012;-7.064;2022-08-21T03:58:16;5.78;;;3.47;;
60239;SDS011;46102;39.012;-7.064;2022-08-21T04:00:19;6.45;;;3.45;;
60239;SDS011;46102;39.012;-7.064;2022-08-21T04:02:20;5.55;;;3.08;;
60239;SDS011;46102;39.012;-7.064;2022-08-21T04:04:22;8.27;;;3.13;;
60239;SDS011;46102;39.012;-7.064;2022-08-21T04:06:23;4.45;;;3.47;;
60239;SDS011;46102;39.012;-7.064;2022-08-21T04:08:23;6.80;;;3.30;;
60239;SDS011;46102;39.012;-7.064;2022-08-21T04:10:25;7.43;;;3.20;;
60239;SDS011;46102;39.012;-7.064;2022-08-21T04:12:27;9.63;;;3.40;;
60239;SDS011;46102;39.012;-7.064;2022-08-21T04:14:27;5.60;;;2.95;;
60239;SDS011;46102;39.012;-7.064;2022-08-21T04:16:28;5.40;;;3.00;;
60239;SDS011;46102;39.012;-7.064;2022-08-21T04:18:29;6.45;;;3.45;;
60239;SDS011;46102;39.012;-7.064;2022-08-21T04:20:30;4.82;;;3.50;;
60239;SDS011;46102;39.012;-7.064;2022-08-21T04:22:31;7.72;;;2.67;;
60239;SDS011;46102;39.012;-7.064;2022-08-21T04:24:31;4.38;;;2.88;;
60239;SDS011;46102;39.012;-7.064;2022-08-21T04:26:32;8.43;;;3.10;;
60239;SDS011;46102;39.012;-7.064;2022-08-21T04:28:35;8.25;;;2.85;;
60239;SDS011;46102;39.012;-7.064;2022-08-21T04:30:36;4.40;;;2.60;;
60239;SDS011;46102;39.012;-7.064;2022-08-21T04:32:37;2.70;;;2.28;;
60239;SDS011;46102;39.012;-7.064;2022-08-21T04:34:38;4.47;;;2.70;;
60239;SDS011;46102;39.012;-7.064;2022-08-21T04:36:39;6.22;;;2.92;;
60239;SDS011;46102;39.012;-7.064;2022-08-21T04:38:40;7.38;;;2.78;;
60239;SDS011;46102;39.012;-7.064;2022-08-21T04:40:40;7.22;;;2.92;;
60239;SDS011;46102;39.012;-7.064;2022-08-21T04:42:43;11.90;;;4.30;;
60239;SDS011;46102;39.012;-7.064;2022-08-21T04:44:47;3.85;;;2.67;;
60239;SDS011;46102;39.012;-7.064;2022-08-21T04:46:49;5.88;;;3.05;;
60239;SDS011;46102;39.012;-7.064;2022-08-21T04:48:49;5.68;;;2.95;;
60239;SDS011;46102;39.012;-7.064;2022-08-21T04:50:54;6.72;;;2.85;;
60239;SDS011;46102;39.012;-7.064;2022-08-21T04:52:59;7.53;;;3.40;;
60239;SDS011;46102;39.012;-7.064;2022-08-21T04:55:00;8.07;;;2.88;;
60239;SDS011;46102;39.012;-7.064;2022-08-21T04:57:02;6.97;;;2.42;;
60239;SDS011;46102;39.012;-7.064;2022-08-21T04:59:10;6.15;;;3.10;;
60239;SDS011;46102;39.012;-7.064;2022-08-21T05:01:18;5.80;;;3.03;;
60239;SDS011;46102;39.012;-7.064;2022-08-21T05:03:22;7.22;;;2.97;;
60239;SDS011;46102;39.012;-7.064;2022-08-21T05:05:24;6.70;;;3.15;;
60239;SDS011;46102;39.012;-7.064;2022-08-21T05:07:26;6.65;;;2.65;;
60239;SDS011;46102;39.012;-7.064;2022-08-21T05:09:30;10.70;;;3.38;;
60239;SDS011;46102;39.012;-7.064;2022-08-21T05:11:31;5.18;;;2.45;;
60239;SDS011;46102;39.012;-7.064;2022-08-21T05:13:32;8.02;;;3.38;;
60239;SDS011;46102;39.012;-7.064;2022-08-21T05:15:33;5.43;;;2.55;;
60239;SDS011;46102;39.012;-7.064;2022-08-21T05:17:34;4.75;;;2.83;;
60239;SDS011;46102;39.012;-7.064;2022-08-21T05:19:35;6.00;;;3.05;;
60239;SDS011;46102;39.012;-7.064;2022-08-21T05:21:38;4.55;;;2.33;;
60239;SDS011;46102;39.012;-7.064;2022-08-21T05:23:41;7.82;;;2.78;;
60239;SDS011;46102;39.012;-7.064;2022-08-21T05:25:43;5.82;;;2.83;;
60239;SDS011;46102;39.012;-7.064;2022-08-21T05:27:44;8.85;;;2.63;;
60239;SDS011;46102;39.012;-7.064;2022-08-21T05:29:44;5.25;;;3.22;;
60239;SDS011;46102;39.012;-7.064;2022-08-21T05:31:45;14.32;;;3.00;;
60239;SDS011;46102;39.012;-7.064;2022-08-21T05:33:47;5.15;;;2.80;;
60239;SDS011;46102;39.012;-7.064;2022-08-21T05:35:51;4.72;;;2.65;;
60239;SDS011;46102;39.012;-7.064;2022-08-21T05:37:53;5.60;;;2.65;;
60239;SDS011;46102;39.012;-7.064;2022-08-21T05:39:54;5.30;;;2.63;;
60239;SDS011;46102;39.012;-7.064;2022-08-21T05:41:55;8.57;;;2.97;;
60239;SDS011;46102;39.012;-7.064;2022-08-21T05:43:55;6.88;;;2.55;;
60239;SDS011;46102;39.012;-7.064;2022-08-21T05:45:56;6.25;;;2.40;;
60239;SDS011;46102;39.012;-7.064;2022-08-21T05:47:57;4.05;;;2.20;;
60239;SDS011;46102;39.012;-7.064;2022-08-21T05:49:58;5.05;;;2.47;;
60239;SDS011;46102;39.012;-7.064;2022-08-21T05:51:58;6.13;;;2.20;;
60239;SDS011;46102;39.012;-7.064;2022-08-21T05:53:59;7.55;;;3.00;;
60239;SDS011;46102;39.012;-7.064;2022-08-21T05:56:00;7.80;;;2.97;;
60239;SDS011;46102;39.012;-7.064;2022-08-21T05:58:03;5.87;;;2.37;;
60239;SDS011;46102;39.012;-7.064;2022-08-21T06:00:05;4.45;;;2.35;;
60239;SDS011;46102;39.012;-7.064;2022-08-21T06:02:13;10.07;;;3.00;;
60239;SDS011;46102;39.012;-7.064;2022-08-21T06:04:14;6.45;;;2.85;;
60239;SDS011;46102;39.012;-7.064;2022-08-21T06:06:15;7.53;;;2.65;;
60239;SDS011;46102;39.012;-7.064;2022-08-21T06:08:16;5.53;;;2.45;;
60239;SDS011;46102;39.012;-7.064;2022-08-21T06:10:18;8.18;;;2.92;;
60239;SDS011;46102;39.012;-7.064;2022-08-21T06:12:19;7.18;;;2.60;;
60239;SDS011;46102;39.012;-7.064;2022-08-21T06:14:19;10.15;;;2.70;;
60239;SDS011;46102;39.012;-7.064;2022-08-21T06:16:20;6.03;;;2.45;;
60239;SDS011;46102;39.012;-7.064;2022-08-21T06:18:22;4.55;;;2.05;;
60239;SDS011;46102;39.012;-7.064;2022-08-21T06:20:23;3.00;;;2.13;;
60239;SDS011;46102;39.012;-7.064;2022-08-21T06:22:23;9.13;;;2.80;;
60239;SDS011;46102;39.012;-7.064;2022-08-21T06:24:24;7.05;;;3.55;;
60239;SDS011;46102;39.012;-7.064;2022-08-21T06:26:26;5.35;;;2.60;;
60239;SDS011;46102;39.012;-7.064;2022-08-21T06:28:28;6.93;;;2.70;;
60239;SDS011;46102;39.012;-7.064;2022-08-21T06:30:29;4.72;;;2.65;;
60239;SDS011;46102;39.012;-7.064;2022-08-21T06:32:29;6.95;;;2.85;;
60239;SDS011;46102;39.012;-7.064;2022-08-21T06:34:30;8.20;;;2.83;;
60239;SDS011;46102;39.012;-7.064;2022-08-21T06:36:31;6.10;;;3.08;;
60239;SDS011;46102;39.012;-7.064;2022-08-21T06:38:32;6.07;;;2.15;;
60239;SDS011;46102;39.012;-7.064;2022-08-21T06:40:33;7.20;;;2.80;;
60239;SDS011;46102;39.012;-7.064;2022-08-21T06:42:33;7.30;;;2.45;;
60239;SDS011;46102;39.012;-7.064;2022-08-21T06:44:34;6.35;;;2.72;;
60239;SDS011;46102;39.012;-7.064;2022-08-21T06:46:35;4.15;;;2.47;;
60239;SDS011;46102;39.012;-7.064;2022-08-21T06:48:36;5.35;;;2.33;;
60239;SDS011;46102;39.012;-7.064;2022-08-21T06:50:37;3.42;;;2.38;;
60239;SDS011;46102;39.012;-7.064;2022-08-21T06:52:38;8.05;;;2.53;;
60239;SDS011;46102;39.012;-7.064;2022-08-21T06:54:39;4.47;;;2.42;;
60239;SDS011;46102;39.012;-7.064;2022-08-21T06:56:41;8.02;;;3.00;;
60239;SDS011;46102;39.012;-7.064;2022-08-21T06:58:41;7.68;;;3.35;;
60239;SDS011;46102;39.012;-7.064;2022-08-21T07:00:45;8.02;;;2.95;;
60239;SDS011;46102;39.012;-7.064;2022-08-21T07:02:48;7.70;;;3.10;;
60239;SDS011;46102;39.012;-7.064;2022-08-21T07:04:48;6.85;;;2.72;;
60239;SDS011;46102;39.012;-7.064;2022-08-21T07:06:49;7.15;;;2.67;;
60239;SDS011;46102;39.012;-7.064;2022-08-21T07:08:50;5.10;;;2.63;;
60239;SDS011;46102;39.012;-7.064;2022-08-21T07:10:52;5.22;;;2.60;;
60239;SDS011;46102;39.012;-7.064;2022-08-21T07:12:55;3.22;;;2.53;;
60239;SDS011;46102;39.012;-7.064;2022-08-21T07:14:55;3.72;;;2.10;;
60239;SDS011;46102;39.012;-7.064;2022-08-21T07:16:56;6.22;;;2.50;;
60239;SDS011;46102;39.012;-7.064;2022-08-21T07:18:57;4.80;;;2.67;;
60239;SDS011;46102;39.012;-7.064;2022-08-21T07:20:58;5.22;;;2.80;;
60239;SDS011;46102;39.012;-7.064;2022-08-21T07:23:03;5.85;;;2.60;;
60239;SDS011;46102;39.012;-7.064;2022-08-21T07:27:07;4.75;;;2.55;;
60239;SDS011;46102;39.012;-7.064;2022-08-21T07:29:08;6.00;;;2.35;;
60239;SDS011;46102;39.012;-7.064;2022-08-21T07:31:09;6.95;;;2.72;;
60239;SDS011;46102;39.012;-7.064;2022-08-21T07:33:13;5.40;;;2.90;;
60239;SDS011;46102;39.012;-7.064;2022-08-21T07:35:14;4.13;;;2.30;;
60239;SDS011;46102;39.012;-7.064;2022-08-21T07:37:17;5.65;;;2.90;;
60239;SDS011;46102;39.012;-7.064;2022-08-21T07:39:17;5.63;;;2.53;;
60239;SDS011;46102;39.012;-7.064;2022-08-21T07:41:19;6.38;;;2.30;;
60239;SDS011;46102;39.012;-7.064;2022-08-21T07:43:23;5.22;;;2.88;;
60239;SDS011;46102;39.012;-7.064;2022-08-21T07:45:25;5.07;;;2.38;;
60239;SDS011;46102;39.012;-7.064;2022-08-21T07:47:26;6.35;;;2.30;;
60239;SDS011;46102;39.012;-7.064;2022-08-21T07:49:27;7.30;;;2.67;;
60239;SDS011;46102;39.012;-7.064;2022-08-21T07:51:28;7.15;;;2.33;;
60239;SDS011;46102;39.012;-7.064;2022-08-21T07:53:29;5.55;;;2.35;;
60239;SDS011;46102;39.012;-7.064;2022-08-21T07:55:29;7.57;;;2.80;;
60239;SDS011;46102;39.012;-7.064;2022-08-21T07:57:30;4.68;;;2.45;;
60239;SDS011;46102;39.012;-7.064;2022-08-21T07:59:31;3.00;;;2.53;;
60239;SDS011;46102;39.012;-7.064;2022-08-21T08:01:32;6.78;;;2.58;;
60239;SDS011;46102;39.012;-7.064;2022-08-21T08:03:33;4.45;;;2.80;;
60239;SDS011;46102;39.012;-7.064;2022-08-21T08:05:34;7.07;;;3.25;;
60239;SDS011;46102;39.012;-7.064;2022-08-21T08:07:37;5.38;;;2.50;;
60239;SDS011;46102;39.012;-7.064;2022-08-21T08:09:38;8.07;;;2.72;;
60239;SDS011;46102;39.012;-7.064;2022-08-21T08:11:40;5.78;;;2.38;;
60239;SDS011;46102;39.012;-7.064;2022-08-21T08:13:46;5.40;;;2.70;;
60239;SDS011;46102;39.012;-7.064;2022-08-21T08:15:49;2.55;;;2.35;;
60239;SDS011;46102;39.012;-7.064;2022-08-21T08:17:50;4.28;;;2.65;;
60239;SDS011;46102;39.012;-7.064;2022-08-21T08:19:50;4.03;;;3.08;;
60239;SDS011;46102;39.012;-7.064;2022-08-21T08:21:51;7.00;;;2.83;;
60239;SDS011;46102;39.012;-7.064;2022-08-21T08:23:52;9.82;;;3.22;;
60239;SDS011;46102;39.012;-7.064;2022-08-21T08:25:53;6.18;;;2.78;;
60239;SDS011;46102;39.012;-7.064;2022-08-21T08:27:54;2.80;;;2.50;;
60239;SDS011;46102;39.012;-7.064;2022-08-21T08:29:54;3.95;;;2.40;;
60239;SDS011;46102;39.012;-7.064;2022-08-21T08:31:55;4.45;;;2.30;;
60239;SDS011;46102;39.012;-7.064;2022-08-21T08:33:56;6.60;;;2.97;;
60239;SDS011;46102;39.012;-7.064;2022-08-21T08:35:57;4.88;;;2.97;;
60239;SDS011;46102;39.012;-7.064;2022-08-21T08:37:58;9.32;;;3.10;;
60239;SDS011;46102;39.012;-7.064;2022-08-21T08:39:58;2.88;;;2.45;;
60239;SDS011;46102;39.012;-7.064;2022-08-21T08:42:18;5.70;;;2.60;;
60239;SDS011;46102;39.012;-7.064;2022-08-21T08:46:41;4.30;;;2.45;;
60239;SDS011;46102;39.012;-7.064;2022-08-21T08:48:49;4.93;;;2.63;;
60239;SDS011;46102;39.012;-7.064;2022-08-21T08:50:55;4.90;;;2.28;;
60239;SDS011;46102;39.012;-7.064;2022-08-21T08:52:58;3.78;;;2.80;;
60239;SDS011;46102;39.012;-7.064;2022-08-21T08:55:20;2.90;;;2.40;;
60239;SDS011;46102;39.012;-7.064;2022-08-21T08:57:26;4.47;;;2.92;;
60239;SDS011;46102;39.012;-7.064;2022-08-21T08:59:29;5.22;;;2.55;;
60239;SDS011;46102;39.012;-7.064;2022-08-21T09:01:38;5.95;;;2.90;;
60239;SDS011;46102;39.012;-7.064;2022-08-21T09:03:39;9.55;;;3.10;;
60239;SDS011;46102;39.012;-7.064;2022-08-21T09:10:11;4.07;;;3.03;;
60239;SDS011;46102;39.012;-7.064;2022-08-21T09:16:47;7.72;;;2.80;;
60239;SDS011;46102;39.012;-7.064;2022-08-21T09:19:08;5.75;;;2.47;;
60239;SDS011;46102;39.012;-7.064;2022-08-21T09:21:20;4.60;;;2.53;;
60239;SDS011;46102;39.012;-7.064;2022-08-21T09:23:49;5.80;;;2.78;;
60239;SDS011;46102;39.012;-7.064;2022-08-21T09:26:13;2.55;;;2.35;;
60239;SDS011;46102;39.012;-7.064;2022-08-21T09:28:15;6.85;;;2.60;;
60239;SDS011;46102;39.012;-7.064;2022-08-21T09:30:16;3.10;;;2.53;;
60239;SDS011;46102;39.012;-7.064;2022-08-21T09:34:24;3.47;;;2.50;;
60239;SDS011;46102;39.012;-7.064;2022-08-21T09:36:36;2.58;;;2.35;;
60239;SDS011;46102;39.012;-7.064;2022-08-21T09:38:51;2.60;;;2.38;;
60239;SDS011;46102;39.012;-7.064;2022-08-21T09:41:02;3.65;;;2.45;;
60239;SDS011;46102;39.012;-7.064;2022-08-21T09:43:06;6.80;;;2.85;;
60239;SDS011;46102;39.012;-7.064;2022-08-21T09:45:10;4.40;;;2.50;;
60239;SDS011;46102;39.012;-7.064;2022-08-21T09:47:18;2.55;;;2.20;;
60239;SDS011;46102;39.012;-7.064;2022-08-21T09:49:27;3.20;;;2.40;;
60239;SDS011;46102;39.012;-7.064;2022-08-21T09:51:32;3.47;;;2.30;;
60239;SDS011;46102;39.012;-7.064;2022-08-21T09:53:37;5.22;;;2.22;;
60239;SDS011;46102;39.012;-7.064;2022-08-21T09:55:53;4.88;;;2.50;;
60239;SDS011;46102;39.012;-7.064;2022-08-21T09:58:16;3.35;;;2.30;;
60239;SDS011;46102;39.012;-7.064;2022-08-21T10:02:27;3.60;;;2.63;;
60239;SDS011;46102;39.012;-7.064;2022-08-21T10:04:34;4.90;;;2.13;;
60239;SDS011;46102;39.012;-7.064;2022-08-21T10:06:36;3.88;;;1.90;;
60239;SDS011;46102;39.012;-7.064;2022-08-21T10:08:38;8.02;;;2.22;;
60239;SDS011;46102;39.012;-7.064;2022-08-21T10:10:40;8.48;;;2.60;;
60239;SDS011;46102;39.012;-7.064;2022-08-21T10:15:02;2.20;;;2.10;;
60239;SDS011;46102;39.012;-7.064;2022-08-21T10:19:46;2.38;;;2.13;;
60239;SDS011;46102;39.012;-7.064;2022-08-21T10:22:14;6.65;;;2.10;;
60239;SDS011;46102;39.012;-7.064;2022-08-21T10:33:12;3.10;;;2.58;;
60239;SDS011;46102;39.012;-7.064;2022-08-21T10:35:23;3.70;;;2.15;;
60239;SDS011;46102;39.012;-7.064;2022-08-21T10:39:52;4.90;;;2.42;;
60239;SDS011;46102;39.012;-7.064;2022-08-21T10:42:21;3.95;;;2.33;;
60239;SDS011;46102;39.012;-7.064;2022-08-21T10:44:41;2.88;;;2.03;;
60239;SDS011;46102;39.012;-7.064;2022-08-21T10:49:17;2.47;;;2.13;;
60239;SDS011;46102;39.012;-7.064;2022-08-21T10:51:40;2.92;;;2.53;;
60239;SDS011;46102;39.012;-7.064;2022-08-21T10:53:54;2.45;;;2.05;;
60239;SDS011;46102;39.012;-7.064;2022-08-21T10:56:11;3.83;;;2.13;;
60239;SDS011;46102;39.012;-7.064;2022-08-21T10:58:19;4.40;;;2.35;;
60239;SDS011;46102;39.012;-7.064;2022-08-21T11:03:01;4.97;;;3.35;;
60239;SDS011;46102;39.012;-7.064;2022-08-21T11:07:55;3.03;;;2.42;;
60239;SDS011;46102;39.012;-7.064;2022-08-21T11:10:08;3.72;;;2.75;;
60239;SDS011;46102;39.012;-7.064;2022-08-21T11:12:30;2.50;;;2.40;;
60239;SDS011;46102;39.012;-7.064;2022-08-21T11:14:41;5.20;;;2.42;;
60239;SDS011;46102;39.012;-7.064;2022-08-21T11:16:50;3.20;;;2.88;;
60239;SDS011;46102;39.012;-7.064;2022-08-21T11:19:00;2.53;;;2.30;;
60239;SDS011;46102;39.012;-7.064;2022-08-21T11:23:33;2.92;;;2.17;;
60239;SDS011;46102;39.012;-7.064;2022-08-21T11:25:41;3.60;;;2.00;;
60239;SDS011;46102;39.012;-7.064;2022-08-21T11:27:58;5.00;;;2.38;;
60239;SDS011;46102;39.012;-7.064;2022-08-21T11:30:06;2.28;;;1.90;;
60239;SDS011;46102;39.012;-7.064;2022-08-21T11:36:32;2.83;;;2.17;;
60239;SDS011;46102;39.012;-7.064;2022-08-21T11:38:50;2.28;;;2.08;;
60239;SDS011;46102;39.012;-7.064;2022-08-21T11:47:58;3.28;;;3.00;;
60239;SDS011;46102;39.012;-7.064;2022-08-21T11:56:32;2.40;;;2.28;;
60239;SDS011;46102;39.012;-7.064;2022-08-21T11:58:43;3.70;;;3.40;;
60239;SDS011;46102;39.012;-7.064;2022-08-21T12:00:52;4.25;;;2.30;;
60239;SDS011;46102;39.012;-7.064;2022-08-21T12:02:56;5.80;;;2.20;;
60239;SDS011;46102;39.012;-7.064;2022-08-21T12:05:09;2.10;;;2.00;;
60239;SDS011;46102;39.012;-7.064;2022-08-21T12:07:36;4.22;;;2.00;;
60239;SDS011;46102;39.012;-7.064;2022-08-21T12:09:37;3.35;;;1.88;;
60239;SDS011;46102;39.012;-7.064;2022-08-21T12:11:45;8.95;;;1.80;;
60239;SDS011;46102;39.012;-7.064;2022-08-21T12:16:27;5.50;;;1.70;;
60239;SDS011;46102;39.012;-7.064;2022-08-21T12:18:31;1.92;;;1.83;;
60239;SDS011;46102;39.012;-7.064;2022-08-21T12:22:37;3.58;;;2.10;;
60239;SDS011;46102;39.012;-7.064;2022-08-21T12:26:49;1.60;;;1.50;;
60239;SDS011;46102;39.012;-7.064;2022-08-21T12:29:02;4.20;;;2.60;;
60239;SDS011;46102;39.012;-7.064;2022-08-21T12:31:18;2.60;;;2.35;;
60239;SDS011;46102;39.012;-7.064;2022-08-21T12:33:31;5.65;;;2.20;;
60239;SDS011;46102;39.012;-7.064;2022-08-21T12:35:36;2.70;;;1.95;;
60239;SDS011;46102;39.012;-7.064;2022-08-21T12:39:46;2.63;;;2.42;;
60239;SDS011;46102;39.012;-7.064;2022-08-21T12:41:54;2.50;;;1.98;;
60239;SDS011;46102;39.012;-7.064;2022-08-21T12:44:00;3.22;;;2.67;;
60239;SDS011;46102;39.012;-7.064;2022-08-21T12:46:14;2.40;;;1.88;;
60239;SDS011;46102;39.012;-7.064;2022-08-21T12:48:31;6.05;;;2.10;;
60239;SDS011;46102;39.012;-7.064;2022-08-21T12:50:44;2.22;;;2.13;;
60239;SDS011;46102;39.012;-7.064;2022-08-21T12:52:58;2.33;;;2.20;;
60239;SDS011;46102;39.012;-7.064;2022-08-21T12:55:05;3.15;;;2.08;;
60239;SDS011;46102;39.012;-7.064;2022-08-21T12:57:08;2.55;;;2.33;;
60239;SDS011;46102;39.012;-7.064;2022-08-21T12:59:18;2.20;;;2.00;;
60239;SDS011;46102;39.012;-7.064;2022-08-21T13:01:33;2.22;;;2.08;;
60239;SDS011;46102;39.012;-7.064;2022-08-21T13:03:35;2.38;;;2.17;;
60239;SDS011;46102;39.012;-7.064;2022-08-21T13:05:39;3.13;;;2.22;;
60239;SDS011;46102;39.012;-7.064;2022-08-21T13:07:43;4.45;;;2.03;;
60239;SDS011;46102;39.012;-7.064;2022-08-21T13:09:47;5.28;;;2.53;;
60239;SDS011;46102;39.012;-7.064;2022-08-21T13:11:55;2.30;;;2.20;;
60239;SDS011;46102;39.012;-7.064;2022-08-21T13:13:57;5.47;;;2.55;;
60239;SDS011;46102;39.012;-7.064;2022-08-21T13:15:59;4.72;;;1.98;;
60239;SDS011;46102;39.012;-7.064;2022-08-21T13:18:04;2.47;;;2.38;;
60239;SDS011;46102;39.012;-7.064;2022-08-21T13:20:22;3.00;;;2.70;;
60239;SDS011;46102;39.012;-7.064;2022-08-21T13:22:25;2.20;;;2.10;;
60239;SDS011;46102;39.012;-7.064;2022-08-21T13:24:32;4.43;;;2.67;;